Main page
METAR-TAF:

METAR-TAF

Airports :

Çanakkale Airport

Çanakkale, Turkey

latitude: 40-08N, longitude: 026-24E, elevation: 3 m

Current weather observation

The report was made 1 hour and 28 minutes ago, at 16:50 UTC
Wind 12 kt from the Northeast
Temperature 12°C
Humidity 54%
Pressure 1019 hPa
Visibility 10 km or more
no clouds below 1500 m and no cumulonimbus

METAR: LTBH 231650Z 04012KT CAVOK 12/03 Q1019

Time: 21:18 (18:18 UTC)

Forecast

The report was made 1 hour and 38 minutes ago, at 16:40 UTC
Forecast valid from 23 at 18 UTC to 24 at 03 UTC
Wind 17 kt from the Northeast
Visibility 10 km or more
no clouds below 1500 m and no cumulonimbus

TAF: LTBH 231640Z 2318/2403 05017KT CAVOK

Weather observations and forecasts of more than 4000 airports (METAR and TAF reports).

The available stations are represented by yellow and red dots on the map.

Hover mouse over dot to see the name of the station.

Then click to see weather observations and forecasts.

To change the map : click on the green buttons with a black cross to zoom in, on the green button with a dash to zoom out, or on the green arrows for adjacent maps.


METAR-TAF: